Time,TemperatureF,DewpointF,PressureIn,WindDirection,WindDirectionDegrees,WindSpeedMPH,WindSpeedGustMPH,Humidity,HourlyPrecipIn,Conditions,Clouds,dailyrainin,SoftwareType,DateUTC
2013-03-27 00:00:00,41.0,29.4,29.98,East,80,3.0,3.0,63,0.00,,,0.00,Wunderground v.1.15,2013-03-27 04:00:00,
2013-03-27 00:05:00,40.6,29.4,29.98,East,80,1.0,3.0,64,0.00,,,0.00,Wunderground v.1.15,2013-03-27 04:05:00,
2013-03-27 00:15:00,39.8,29.0,29.98,East,80,0.0,0.0,65,0.00,,,0.00,Wunderground v.1.15,2013-03-27 04:15:00,
2013-03-27 00:20:00,39.9,29.1,29.98,ENE,65,0.0,2.0,65,0.00,,,0.00,Wunderground v.1.15,2013-03-27 04:20:00,
2013-03-27 00:25:00,40.4,29.2,29.98,SSW,193,2.0,5.0,64,0.00,,,0.00,Wunderground v.1.15,2013-03-27 04:25:00,
2013-03-27 00:30:00,40.8,29.2,29.98,SE,136,3.0,3.0,63,0.00,,,0.00,Wunderground v.1.15,2013-03-27 04:30:00,
2013-03-27 00:35:00,40.9,28.9,29.99,ENE,76,3.0,3.0,62,0.00,,,0.00,Wunderground v.1.15,2013-03-27 04:35:00,
2013-03-27 00:40:00,41.0,29.0,29.98,SE,138,2.0,2.0,62,0.00,,,0.00,Wunderground v.1.15,2013-03-27 04:40:00,
2013-03-27 00:50:00,40.5,28.9,29.99,East,98,2.0,2.0,63,0.00,,,0.00,Wunderground v.1.15,2013-03-27 04:50:00,
2013-03-27 00:55:00,39.9,29.5,29.99,East,98,2.0,2.0,66,0.00,,,0.00,Wunderground v.1.15,2013-03-27 04:55:00,
2013-03-27 01:00:00,39.7,28.9,29.99,East,99,1.0,1.0,65,0.00,,,0.00,Wunderground v.1.15,2013-03-27 05:00:00,
2013-03-27 01:10:00,40.2,29.0,29.98,SSW,213,2.0,3.0,64,0.00,,,0.00,Wunderground v.1.15,2013-03-27 05:10:00,
2013-03-27 01:20:00,40.4,28.8,29.99,SSE,161,3.0,3.0,63,0.00,,,0.00,Wunderground v.1.15,2013-03-27 05:20:00,
2013-03-27 01:25:00,40.5,28.9,29.99,ENE,67,3.0,5.0,63,0.00,,,0.00,Wunderground v.1.15,2013-03-27 05:25:00,
2013-03-27 01:30:00,40.6,29.0,29.99,ENE,63,2.0,2.0,63,0.00,,,0.00,Wunderground v.1.15,2013-03-27 05:30:00,
2013-03-27 01:35:00,40.1,28.9,29.99,SSE,153,2.0,2.0,64,0.00,,,0.00,Wunderground v.1.15,2013-03-27 05:35:00,
2013-03-27 01:40:00,39.8,29.0,29.99,SW,217,3.0,4.0,65,0.00,,,0.00,Wunderground v.1.15,2013-03-27 05:40:00,
2013-03-27 01:45:00,39.6,28.8,29.99,SW,224,2.0,4.0,65,0.00,,,0.00,Wunderground v.1.15,2013-03-27 05:45:00,
2013-03-27 01:55:00,39.9,29.1,29.99,South,174,3.0,3.0,65,0.00,,,0.00,Wunderground v.1.15,2013-03-27 05:55:00,
2013-03-27 02:00:00,39.8,29.0,29.99,South,178,2.0,2.0,65,0.00,,,0.00,Wunderground v.1.15,2013-03-27 06:00:00,
2013-03-27 02:10:00,39.7,28.9,29.99,WNW,295,2.0,2.0,65,0.00,,,0.00,Wunderground v.1.15,2013-03-27 06:10:00,
2013-03-27 02:15:00,39.7,28.9,29.98,West,267,2.0,5.0,65,0.00,,,0.00,Wunderground v.1.15,2013-03-27 06:15:00,
2013-03-27 02:25:00,39.8,29.0,29.98,West,263,5.0,6.0,65,0.00,,,0.00,Wunderground v.1.15,2013-03-27 06:25:00,
2013-03-27 02:30:00,39.6,28.8,29.98,WNW,302,6.0,10.0,65,0.00,,,0.00,Wunderground v.1.15,2013-03-27 06:30:00,
2013-03-27 02:35:00,39.7,28.9,29.98,West,281,8.0,11.0,65,0.00,,,0.00,Wunderground v.1.15,2013-03-27 06:35:00,
2013-03-27 02:40:00,39.8,29.0,29.98,WNW,290,11.0,12.0,65,0.00,,,0.00,Wunderground v.1.15,2013-03-27 06:40:00,
2013-03-27 02:45:00,39.7,28.9,29.98,West,264,11.0,12.0,65,0.00,,,0.00,Wunderground v.1.15,2013-03-27 06:45:00,
2013-03-27 02:50:00,39.7,28.9,29.98,NNW,335,9.0,9.0,65,0.00,,,0.00,Wunderground v.1.15,2013-03-27 06:50:00,
2013-03-27 03:00:00,39.7,28.9,29.98,West,263,12.0,12.0,65,0.00,,,0.00,Wunderground v.1.15,2013-03-27 07:00:00,
2013-03-27 03:10:00,39.5,28.7,29.98,NW,313,9.0,9.0,65,0.00,,,0.00,Wunderground v.1.15,2013-03-27 07:10:00,
2013-03-27 03:15:00,39.3,28.9,29.97,West,277,7.0,9.0,66,0.00,,,0.00,Wunderground v.1.15,2013-03-27 07:15:00,
2013-03-27 03:20:00,39.2,28.8,29.97,NNW,346,7.0,7.0,66,0.00,,,0.00,Wunderground v.1.15,2013-03-27 07:20:00,
2013-03-27 03:30:00,39.1,28.7,29.97,West,265,7.0,7.0,66,0.00,,,0.00,Wunderground v.1.15,2013-03-27 07:30:00,
2013-03-27 03:35:00,39.0,28.6,29.97,West,261,6.0,7.0,66,0.00,,,0.00,Wunderground v.1.15,2013-03-27 07:35:00,
2013-03-27 03:40:00,38.9,28.5,29.97,WNW,294,5.0,5.0,66,0.00,,,0.00,Wunderground v.1.15,2013-03-27 07:40:00,
2013-03-27 03:45:00,38.8,28.4,29.97,WNW,282,5.0,5.0,66,0.00,,,0.00,Wunderground v.1.15,2013-03-27 07:45:00,
2013-03-27 03:50:00,38.8,28.8,29.97,NNW,346,4.0,4.0,67,0.00,,,0.00,Wunderground v.1.15,2013-03-27 07:50:00,
2013-03-27 03:55:00,38.6,28.6,29.97,NW,305,3.0,4.0,67,0.00,,,0.00,Wunderground v.1.15,2013-03-27 07:55:00,
2013-03-27 04:00:00,38.6,28.6,29.97,WNW,284,2.0,2.0,67,0.00,,,0.00,Wunderground v.1.15,2013-03-27 08:00:00,
2013-03-27 04:10:00,38.7,28.7,29.97,SE,138,4.0,6.0,67,0.00,,,0.00,Wunderground v.1.15,2013-03-27 08:10:00,
2013-03-27 04:15:00,38.6,28.9,29.97,East,86,3.0,6.0,68,0.00,,,0.00,Wunderground v.1.15,2013-03-27 08:15:00,
2013-03-27 04:20:00,38.5,28.9,29.97,SSE,163,2.0,2.0,68,0.00,,,0.00,Wunderground v.1.15,2013-03-27 08:20:00,
2013-03-27 04:25:00,38.2,28.6,29.97,SSE,162,2.0,2.0,68,0.00,,,0.00,Wunderground v.1.15,2013-03-27 08:25:00,
2013-03-27 04:30:00,38.1,28.8,29.97,ENE,67,2.0,2.0,69,0.00,,,0.00,Wunderground v.1.15,2013-03-27 08:30:00,
2013-03-27 04:40:00,37.9,29.0,29.97,NE,44,3.0,3.0,70,0.00,,,0.00,Wunderground v.1.15,2013-03-27 08:40:00,
2013-03-27 04:45:00,37.5,28.6,29.97,South,180,3.0,4.0,70,0.00,,,0.00,Wunderground v.1.15,2013-03-27 08:45:00,
2013-03-27 04:50:00,37.3,28.8,29.97,NE,44,2.0,5.0,71,0.00,,,0.00,Wunderground v.1.15,2013-03-27 08:50:00,
2013-03-27 04:55:00,37.3,28.8,29.97,NW,313,1.0,5.0,71,0.00,,,0.00,Wunderground v.1.15,2013-03-27 08:55:00,
2013-03-27 05:00:00,36.9,28.4,29.97,ESE,110,3.0,3.0,71,0.00,,,0.00,Wunderground v.1.15,2013-03-27 09:00:00,
2013-03-27 05:05:00,36.5,28.3,29.97,SSE,155,2.0,3.0,72,0.00,,,0.00,Wunderground v.1.15,2013-03-27 09:05:00,
2013-03-27 05:10:00,36.6,28.4,29.97,West,281,1.0,1.0,72,0.00,,,0.00,Wunderground v.1.15,2013-03-27 09:10:00,
2013-03-27 05:15:00,37.1,28.6,29.97,East,99,1.0,1.0,71,0.00,,,0.00,Wunderground v.1.15,2013-03-27 09:15:00,
2013-03-27 05:20:00,37.2,28.7,29.97,NNE,17,2.0,2.0,71,0.00,,,0.00,Wunderground v.1.15,2013-03-27 09:20:00,
2013-03-27 05:25:00,37.1,28.6,29.97,SSE,157,2.0,2.0,71,0.00,,,0.00,Wunderground v.1.15,2013-03-27 09:25:00,
2013-03-27 05:30:00,37.4,28.2,29.97,West,275,4.0,7.0,69,0.00,,,0.00,Wunderground v.1.15,2013-03-27 09:30:00,
2013-03-27 05:40:00,37.8,28.2,29.97,WNW,301,8.0,12.0,68,0.00,,,0.00,Wunderground v.1.15,2013-03-27 09:40:00,
2013-03-27 05:45:00,37.8,28.2,29.97,West,274,8.0,12.0,68,0.00,,,0.00,Wunderground v.1.15,2013-03-27 09:45:00,
2013-03-27 05:50:00,37.8,28.2,29.97,West,279,7.0,11.0,68,0.00,,,0.00,Wunderground v.1.15,2013-03-27 09:50:00,
2013-03-27 05:55:00,37.8,28.2,29.97,West,261,7.0,11.0,68,0.00,,,0.00,Wunderground v.1.15,2013-03-27 09:55:00,
2013-03-27 06:00:00,38.0,28.0,29.98,West,272,9.0,12.0,67,0.00,,,0.00,Wunderground v.1.15,2013-03-27 10:00:00,
2013-03-27 06:10:00,38.2,28.2,29.98,SW,230,10.0,10.0,67,0.00,,,0.00,Wunderground v.1.15,2013-03-27 10:10:00,
2013-03-27 06:15:00,38.1,28.1,29.98,SW,223,8.0,10.0,67,0.00,,,0.00,Wunderground v.1.15,2013-03-27 10:15:00,
2013-03-27 06:20:00,38.0,28.0,29.99,SSW,206,5.0,5.0,67,0.00,,,0.00,Wunderground v.1.15,2013-03-27 10:20:00,
2013-03-27 06:25:00,38.0,28.0,30.00,ESE,106,4.0,6.0,67,0.00,,,0.00,Wunderground v.1.15,2013-03-27 10:25:00,
2013-03-27 06:30:00,37.9,28.3,30.00,East,92,5.0,5.0,68,0.00,,,0.00,Wunderground v.1.15,2013-03-27 10:30:00,
2013-03-27 06:35:00,37.4,28.2,30.00,SSE,159,4.0,5.0,69,0.00,,,0.00,Wunderground v.1.15,2013-03-27 10:35:00,
2013-03-27 06:45:00,36.6,28.1,30.00,SSE,168,4.0,4.0,71,0.00,,,0.00,Wunderground v.1.15,2013-03-27 10:45:00,
2013-03-27 06:50:00,36.9,28.4,30.00,SE,126,3.0,3.0,71,0.00,,,0.00,Wunderground v.1.15,2013-03-27 10:50:00,
2013-03-27 06:55:00,36.9,28.4,30.01,SSW,193,2.0,6.0,71,0.00,,,0.00,Wunderground v.1.15,2013-03-27 10:55:00,
2013-03-27 07:00:00,37.0,28.5,30.01,South,184,4.0,4.0,71,0.00,,,0.00,Wunderground v.1.15,2013-03-27 11:00:00,
2013-03-27 07:10:00,36.9,28.4,30.01,SSW,195,4.0,4.0,71,0.00,,,0.00,Wunderground v.1.15,2013-03-27 11:10:00,
2013-03-27 07:15:00,37.0,28.5,30.01,SW,223,2.0,4.0,71,0.00,,,0.00,Wunderground v.1.15,2013-03-27 11:15:00,
2013-03-27 07:20:00,37.0,28.5,30.01,WSW,250,4.0,4.0,71,0.00,,,0.00,Wunderground v.1.15,2013-03-27 11:20:00,
2013-03-27 07:25:00,37.1,28.2,30.01,South,181,4.0,4.0,70,0.00,,,0.00,Wunderground v.1.15,2013-03-27 11:25:00,
2013-03-27 07:30:00,36.9,28.4,30.01,South,180,3.0,3.0,71,0.00,,,0.00,Wunderground v.1.15,2013-03-27 11:30:00,
2013-03-27 07:35:00,36.6,28.4,30.02,South,180,1.0,3.0,72,0.00,,,0.00,Wunderground v.1.15,2013-03-27 11:35:00,
2013-03-27 07:40:00,36.2,28.4,30.02,WNW,288,1.0,4.0,73,0.00,,,0.00,Wunderground v.1.15,2013-03-27 11:40:00,
2013-03-27 07:45:00,36.5,28.3,30.02,North,9,2.0,4.0,72,0.00,,,0.00,Wunderground v.1.15,2013-03-27 11:45:00,
2013-03-27 07:50:00,36.8,28.3,30.02,NW,324,4.0,4.0,71,0.00,,,0.00,Wunderground v.1.15,2013-03-27 11:50:00,
2013-03-27 07:55:00,36.9,28.4,30.02,SE,134,4.0,4.0,71,0.00,,,0.00,Wunderground v.1.15,2013-03-27 11:55:00,
2013-03-27 08:00:00,37.0,28.1,30.02,East,95,2.0,2.0,70,0.00,,,0.00,Wunderground v.1.15,2013-03-27 12:00:00,
2013-03-27 08:10:00,37.3,28.4,30.03,NNW,340,2.0,5.0,70,0.00,,,0.00,Wunderground v.1.15,2013-03-27 12:10:00,
2013-03-27 08:20:00,38.5,28.9,30.03,NW,308,3.0,6.0,68,0.00,,,0.00,Wunderground v.1.15,2013-03-27 12:20:00,
2013-03-27 08:25:00,39.0,29.0,30.03,WSW,251,4.0,6.0,67,0.00,,,0.00,Wunderground v.1.15,2013-03-27 12:25:00,
2013-03-27 08:30:00,38.9,28.5,30.03,NW,323,5.0,5.0,66,0.00,,,0.00,Wunderground v.1.15,2013-03-27 12:30:00,
2013-03-27 08:35:00,38.8,28.8,30.03,West,259,7.0,7.0,67,0.00,,,0.00,Wunderground v.1.15,2013-03-27 12:35:00,
2013-03-27 08:40:00,38.7,28.7,30.03,WNW,291,7.0,7.0,67,0.00,,,0.00,Wunderground v.1.15,2013-03-27 12:40:00,
2013-03-27 08:45:00,38.7,28.7,30.03,WSW,257,7.0,8.0,67,0.00,,,0.00,Wunderground v.1.15,2013-03-27 12:45:00,
2013-03-27 08:55:00,38.8,28.8,30.03,West,267,6.0,7.0,67,0.00,,,0.00,Wunderground v.1.15,2013-03-27 12:55:00,
2013-03-27 09:00:00,38.9,28.9,30.04,WNW,288,7.0,16.0,67,0.00,,,0.00,Wunderground v.1.15,2013-03-27 13:00:00,
2013-03-27 09:10:00,39.1,29.1,30.04,West,280,11.0,11.0,67,0.00,,,0.00,Wunderground v.1.15,2013-03-27 13:10:00,
2013-03-27 09:15:00,39.3,29.3,30.04,West,269,11.0,11.0,67,0.00,,,0.00,Wunderground v.1.15,2013-03-27 13:15:00,
2013-03-27 09:20:00,39.6,29.5,30.04,West,277,10.0,10.0,67,0.00,,,0.00,Wunderground v.1.15,2013-03-27 13:20:00,
2013-03-27 09:25:00,40.0,29.6,30.04,West,269,10.0,10.0,66,0.00,,,0.00,Wunderground v.1.15,2013-03-27 13:25:00,
2013-03-27 09:30:00,40.3,29.8,30.04,West,263,12.0,12.0,66,0.00,,,0.00,Wunderground v.1.15,2013-03-27 13:30:00,
2013-03-27 09:35:00,41.1,31.3,30.04,West,263,13.0,13.0,68,0.00,,,0.00,Wunderground v.1.15,2013-03-27 13:35:00,
2013-03-27 09:45:00,41.7,30.0,30.04,WNW,282,15.0,20.0,63,0.00,,,0.00,Wunderground v.1.15,2013-03-27 13:45:00,
2013-03-27 09:50:00,41.8,29.7,30.04,West,281,16.0,16.0,62,0.00,,,0.00,Wunderground v.1.15,2013-03-27 13:50:00,
2013-03-27 09:55:00,41.8,29.7,30.04,West,275,16.0,16.0,62,0.00,,,0.00,Wunderground v.1.15,2013-03-27 13:55:00,
2013-03-27 10:00:00,41.6,29.1,30.05,West,259,15.0,15.0,61,0.00,,,0.00,Wunderground v.1.15,2013-03-27 14:00:00,
2013-03-27 10:10:00,40.9,28.5,30.05,NW,312,14.0,14.0,61,0.00,,,0.00,Wunderground v.1.15,2013-03-27 14:10:00,
2013-03-27 10:15:00,41.0,29.0,30.05,WNW,296,14.0,14.0,62,0.00,,,0.00,Wunderground v.1.15,2013-03-27 14:15:00,
2013-03-27 10:20:00,41.5,29.0,30.05,West,259,13.0,17.0,61,0.00,,,0.00,Wunderground v.1.15,2013-03-27 14:20:00,
2013-03-27 10:30:00,41.5,29.0,30.05,SW,232,16.0,16.0,61,0.00,,,0.00,Wunderground v.1.15,2013-03-27 14:30:00,
2013-03-27 10:35:00,41.4,28.9,30.05,WNW,302,14.0,16.0,61,0.00,,,0.00,Wunderground v.1.15,2013-03-27 14:35:00,
2013-03-27 10:40:00,41.5,29.0,30.05,West,273,13.0,16.0,61,0.00,,,0.00,Wunderground v.1.15,2013-03-27 14:40:00,
2013-03-27 10:45:00,41.4,28.9,30.06,WNW,286,15.0,19.0,61,0.00,,,0.00,Wunderground v.1.15,2013-03-27 14:45:00,
2013-03-27 10:50:00,41.5,29.0,30.06,WNW,291,15.0,15.0,61,0.00,,,0.00,Wunderground v.1.15,2013-03-27 14:50:00,
2013-03-27 11:00:00,42.9,30.8,30.05,West,278,12.0,14.0,62,0.00,,,0.00,Wunderground v.1.15,2013-03-27 15:00:00,
2013-03-27 11:10:00,43.7,30.3,30.05,West,280,15.0,15.0,59,0.00,,,0.00,Wunderground v.1.15,2013-03-27 15:10:00,
2013-03-27 11:15:00,43.7,30.3,30.05,West,274,13.0,15.0,59,0.00,,,0.00,Wunderground v.1.15,2013-03-27 15:15:00,
2013-03-27 11:20:00,43.2,30.2,30.05,West,265,13.0,13.0,60,0.00,,,0.00,Wunderground v.1.15,2013-03-27 15:20:00,
2013-03-27 11:25:00,43.1,30.1,30.05,NW,312,13.0,13.0,60,0.00,,,0.00,Wunderground v.1.15,2013-03-27 15:25:00,
2013-03-27 11:35:00,43.9,30.1,30.05,West,263,12.0,17.0,58,0.00,,,0.00,Wunderground v.1.15,2013-03-27 15:35:00,
2013-03-27 11:40:00,44.2,29.9,30.05,West,277,15.0,15.0,57,0.00,,,0.00,Wunderground v.1.15,2013-03-27 15:40:00,
2013-03-27 11:45:00,44.1,29.8,30.05,West,261,13.0,15.0,57,0.00,,,0.00,Wunderground v.1.15,2013-03-27 15:45:00,
2013-03-27 11:50:00,44.0,29.3,30.05,West,261,13.0,14.0,56,0.00,,,0.00,Wunderground v.1.15,2013-03-27 15:50:00,
2013-03-27 11:55:00,44.3,30.0,30.05,West,270,13.0,18.0,57,0.00,,,0.00,Wunderground v.1.15,2013-03-27 15:55:00,
2013-03-27 12:00:00,45.6,29.4,30.05,WSW,252,13.0,13.0,53,0.00,,,0.00,Wunderground v.1.15,2013-03-27 16:00:00,
2013-03-27 12:10:00,46.4,29.7,30.05,NW,308,11.0,13.0,52,0.00,,,0.00,Wunderground v.1.15,2013-03-27 16:10:00,
2013-03-27 12:15:00,45.7,29.1,30.05,WNW,287,12.0,13.0,52,0.00,,,0.00,Wunderground v.1.15,2013-03-27 16:15:00,
2013-03-27 12:20:00,45.2,29.1,30.05,WNW,293,11.0,11.0,53,0.00,,,0.00,Wunderground v.1.15,2013-03-27 16:20:00,
2013-03-27 12:25:00,45.0,29.3,30.05,West,274,8.0,11.0,54,0.00,,,0.00,Wunderground v.1.15,2013-03-27 16:25:00,
2013-03-27 12:30:00,44.9,28.8,30.05,WSW,237,8.0,10.0,53,0.00,,,0.00,Wunderground v.1.15,2013-03-27 16:30:00,
2013-03-27 12:40:00,45.3,29.2,30.05,North,355,8.0,8.0,53,0.00,,,0.00,Wunderground v.1.15,2013-03-27 16:40:00,
2013-03-27 12:45:00,45.8,29.2,30.05,West,261,6.0,8.0,52,0.00,,,0.00,Wunderground v.1.15,2013-03-27 16:45:00,
2013-03-27 12:50:00,45.2,28.1,30.05,NW,304,8.0,8.0,51,0.00,,,0.00,Wunderground v.1.15,2013-03-27 16:50:00,
2013-03-27 12:55:00,45.1,29.0,30.05,West,281,9.0,9.0,53,0.00,,,0.00,Wunderground v.1.15,2013-03-27 16:55:00,
2013-03-27 13:00:00,45.1,28.5,30.05,West,275,8.0,12.0,52,0.00,,,0.00,Wunderground v.1.15,2013-03-27 17:00:00,
2013-03-27 13:05:00,43.7,30.7,30.05,WNW,302,10.0,15.0,60,0.00,,,0.00,Wunderground v.1.15,2013-03-27 17:05:00,
2013-03-27 13:15:00,45.8,33.1,30.05,West,273,6.0,9.0,61,0.00,,,0.00,Wunderground v.1.15,2013-03-27 17:15:00,
2013-03-27 13:20:00,47.0,31.7,30.05,SW,236,5.0,7.0,55,0.00,,,0.00,Wunderground v.1.15,2013-03-27 17:20:00,
2013-03-27 13:25:00,46.8,29.6,30.05,WSW,238,8.0,11.0,51,0.00,,,0.00,Wunderground v.1.15,2013-03-27 17:25:00,
2013-03-27 13:30:00,46.4,29.7,30.05,West,281,9.0,9.0,52,0.00,,,0.00,Wunderground v.1.15,2013-03-27 17:30:00,
2013-03-27 13:35:00,46.1,29.4,30.05,West,264,9.0,16.0,52,0.00,,,0.00,Wunderground v.1.15,2013-03-27 17:35:00,
2013-03-27 13:40:00,46.7,29.0,30.05,NNW,345,11.0,11.0,50,0.00,,,0.00,Wunderground v.1.15,2013-03-27 17:40:00,
2013-03-27 13:45:00,45.9,29.7,30.05,NNW,329,11.0,13.0,53,0.00,,,0.00,Wunderground v.1.15,2013-03-27 17:45:00,
2013-03-27 13:50:00,44.2,30.8,30.06,West,274,12.0,12.0,59,0.00,,,0.00,Wunderground v.1.15,2013-03-27 17:50:00,
2013-03-27 13:55:00,43.6,32.6,30.05,NNW,330,11.0,12.0,65,0.00,,,0.00,Wunderground v.1.15,2013-03-27 17:55:00,
2013-03-27 14:00:00,44.1,31.5,30.05,NNW,338,9.0,9.0,61,0.00,,,0.00,Wunderground v.1.15,2013-03-27 18:00:00,
2013-03-27 14:10:00,45.0,31.5,30.05,West,263,7.0,12.0,59,0.00,,,0.00,Wunderground v.1.15,2013-03-27 18:10:00,
2013-03-27 14:15:00,44.8,30.9,30.05,West,275,8.0,12.0,58,0.00,,,0.00,Wunderground v.1.15,2013-03-27 18:15:00,
2013-03-27 14:20:00,44.9,30.1,30.04,West,263,10.0,14.0,56,0.00,,,0.00,Wunderground v.1.15,2013-03-27 18:20:00,
2013-03-27 14:25:00,46.3,30.5,30.04,WNW,290,10.0,14.0,54,0.00,,,0.00,Wunderground v.1.15,2013-03-27 18:25:00,
2013-03-27 14:30:00,47.8,30.5,30.04,West,272,9.0,19.0,51,0.00,,,0.00,Wunderground v.1.15,2013-03-27 18:30:00,
2013-03-27 14:35:00,47.0,30.7,30.05,WNW,300,12.0,24.0,53,0.00,,,0.00,Wunderground v.1.15,2013-03-27 18:35:00,
2013-03-27 14:45:00,44.6,32.4,30.05,WNW,282,13.0,16.0,62,0.00,,,0.00,Wunderground v.1.15,2013-03-27 18:45:00,
2013-03-27 14:50:00,45.2,31.7,30.04,West,261,12.0,13.0,59,0.00,,,0.00,Wunderground v.1.15,2013-03-27 18:50:00,
2013-03-27 14:55:00,45.9,31.1,30.04,West,277,12.0,16.0,56,0.00,,,0.00,Wunderground v.1.15,2013-03-27 18:55:00,
2013-03-27 15:00:00,46.4,31.5,30.04,NW,312,11.0,11.0,56,0.00,,,0.00,Wunderground v.1.15,2013-03-27 19:00:00,
2013-03-27 15:10:00,47.7,30.9,30.04,West,281,8.0,10.0,52,0.00,,,0.00,Wunderground v.1.15,2013-03-27 19:10:00,
2013-03-27 15:20:00,48.2,29.9,30.04,WSW,257,9.0,12.0,49,0.00,,,0.00,Wunderground v.1.15,2013-03-27 19:20:00,
2013-03-27 15:25:00,46.5,28.8,30.05,WSW,258,11.0,12.0,50,0.00,,,0.00,Wunderground v.1.15,2013-03-27 19:25:00,
2013-03-27 15:30:00,45.5,29.8,30.05,NE,34,10.0,17.0,54,0.00,,,0.00,Wunderground v.1.15,2013-03-27 19:30:00,
2013-03-27 15:35:00,42.9,33.1,30.06,NW,309,10.0,17.0,68,0.00,,,0.00,Wunderground v.1.15,2013-03-27 19:35:00,
2013-03-27 15:40:00,40.9,32.9,30.06,WNW,298,10.0,10.0,73,0.00,,,0.00,Wunderground v.1.15,2013-03-27 19:40:00,
2013-03-27 15:50:00,40.2,32.6,30.04,West,263,10.0,10.0,74,0.00,,,0.00,Wunderground v.1.15,2013-03-27 19:50:00,
2013-03-27 15:55:00,41.6,34.3,30.04,NNW,336,7.0,10.0,75,0.00,,,0.00,Wunderground v.1.15,2013-03-27 19:55:00,
2013-03-27 16:00:00,43.4,33.9,30.04,West,264,7.0,9.0,69,0.00,,,0.00,Wunderground v.1.15,2013-03-27 20:00:00,
2013-03-27 16:10:00,46.1,32.1,30.03,West,267,7.0,13.0,58,0.00,,,0.00,Wunderground v.1.15,2013-03-27 20:10:00,
2013-03-27 16:15:00,45.8,29.6,30.03,West,270,11.0,17.0,53,0.00,,,0.00,Wunderground v.1.15,2013-03-27 20:15:00,
2013-03-27 16:25:00,45.0,29.8,30.04,West,281,10.0,13.0,55,0.00,,,0.00,Wunderground v.1.15,2013-03-27 20:25:00,
2013-03-27 16:30:00,45.5,28.4,30.03,West,279,9.0,10.0,51,0.00,,,0.00,Wunderground v.1.15,2013-03-27 20:30:00,
2013-03-27 16:35:00,45.1,28.0,30.03,WSW,258,11.0,12.0,51,0.00,,,0.00,Wunderground v.1.15,2013-03-27 20:35:00,
2013-03-27 16:40:00,45.6,28.0,30.03,West,281,10.0,10.0,50,0.00,,,0.00,Wunderground v.1.15,2013-03-27 20:40:00,
2013-03-27 16:45:00,46.5,26.8,30.03,WNW,303,11.0,13.0,46,0.00,,,0.00,Wunderground v.1.15,2013-03-27 20:45:00,
2013-03-27 16:55:00,46.2,26.0,30.04,West,271,15.0,15.0,45,0.00,,,0.00,Wunderground v.1.15,2013-03-27 20:55:00,
2013-03-27 17:00:00,46.3,25.6,30.04,WNW,302,12.0,15.0,44,0.00,,,0.00,Wunderground v.1.15,2013-03-27 21:00:00,
2013-03-27 17:10:00,46.5,25.7,30.04,WNW,298,11.0,15.0,44,0.00,,,0.00,Wunderground v.1.15,2013-03-27 21:10:00,
2013-03-27 17:15:00,46.4,25.6,30.04,West,267,9.0,15.0,44,0.00,,,0.00,Wunderground v.1.15,2013-03-27 21:15:00,
2013-03-27 17:20:00,46.1,25.4,30.04,NW,308,9.0,15.0,44,0.00,,,0.00,Wunderground v.1.15,2013-03-27 21:20:00,
2013-03-27 17:25:00,46.3,25.6,30.04,West,277,10.0,15.0,44,0.00,,,0.00,Wunderground v.1.15,2013-03-27 21:25:00,
2013-03-27 17:30:00,46.7,26.5,30.04,NW,309,8.0,9.0,45,0.00,,,0.00,Wunderground v.1.15,2013-03-27 21:30:00,
2013-03-27 17:35:00,47.0,26.7,30.04,WNW,291,6.0,9.0,45,0.00,,,0.00,Wunderground v.1.15,2013-03-27 21:35:00,
2013-03-27 17:40:00,47.4,26.6,30.04,NW,326,7.0,7.0,44,0.00,,,0.00,Wunderground v.1.15,2013-03-27 21:40:00,
2013-03-27 17:45:00,47.3,26.5,30.04,WNW,294,7.0,7.0,44,0.00,,,0.00,Wunderground v.1.15,2013-03-27 21:45:00,
2013-03-27 17:55:00,47.0,25.6,30.04,WNW,302,8.0,13.0,43,0.00,,,0.00,Wunderground v.1.15,2013-03-27 21:55:00,
2013-03-27 18:00:00,47.0,25.6,30.05,NNW,328,8.0,8.0,43,0.00,,,0.00,Wunderground v.1.15,2013-03-27 22:00:00,
2013-03-27 18:10:00,46.5,25.7,30.05,West,275,6.0,6.0,44,0.00,,,0.00,Wunderground v.1.15,2013-03-27 22:10:00,
2013-03-27 18:15:00,46.2,24.9,30.05,West,271,6.0,19.0,43,0.00,,,0.00,Wunderground v.1.15,2013-03-27 22:15:00,
2013-03-27 18:20:00,46.0,25.3,30.05,West,267,8.0,9.0,44,0.00,,,0.00,Wunderground v.1.15,2013-03-27 22:20:00,
2013-03-27 18:30:00,45.5,25.4,30.05,North,360,8.0,8.0,45,0.00,,,0.00,Wunderground v.1.15,2013-03-27 22:30:00,
2013-03-27 18:35:00,45.6,25.5,30.05,West,275,8.0,8.0,45,0.00,,,0.00,Wunderground v.1.15,2013-03-27 22:35:00,
2013-03-27 18:40:00,45.7,25.5,30.05,West,263,7.0,10.0,45,0.00,,,0.00,Wunderground v.1.15,2013-03-27 22:40:00,
2013-03-27 18:45:00,45.6,25.5,30.05,NW,321,6.0,10.0,45,0.00,,,0.00,Wunderground v.1.15,2013-03-27 22:45:00,
2013-03-27 18:50:00,45.5,25.4,30.05,West,279,8.0,8.0,45,0.00,,,0.00,Wunderground v.1.15,2013-03-27 22:50:00,
2013-03-27 18:55:00,45.3,25.7,30.05,WSW,257,9.0,11.0,46,0.00,,,0.00,Wunderground v.1.15,2013-03-27 22:55:00,
2013-03-27 19:00:00,45.0,26.0,30.05,West,263,10.0,12.0,47,0.00,,,0.00,Wunderground v.1.15,2013-03-27 23:00:00,
2013-03-27 19:10:00,44.3,25.8,30.05,West,271,13.0,13.0,48,0.00,,,0.00,Wunderground v.1.15,2013-03-27 23:10:00,
2013-03-27 19:15:00,44.1,26.1,30.06,West,269,14.0,14.0,49,0.00,,,0.00,Wunderground v.1.15,2013-03-27 23:15:00,
2013-03-27 19:20:00,43.8,26.3,30.06,West,268,14.0,14.0,50,0.00,,,0.00,Wunderground v.1.15,2013-03-27 23:20:00,
2013-03-27 19:25:00,43.6,26.2,30.06,NNW,337,13.0,18.0,50,0.00,,,0.00,Wunderground v.1.15,2013-03-27 23:25:00,
2013-03-27 19:35:00,43.3,26.4,30.07,West,281,12.0,13.0,51,0.00,,,0.00,Wunderground v.1.15,2013-03-27 23:35:00,
2013-03-27 19:40:00,43.1,26.7,30.07,West,270,10.0,11.0,52,0.00,,,0.00,Wunderground v.1.15,2013-03-27 23:40:00,
2013-03-27 19:45:00,42.9,26.5,30.07,West,267,11.0,12.0,52,0.00,,,0.00,Wunderground v.1.15,2013-03-27 23:45:00,
2013-03-27 19:50:00,42.8,26.8,30.07,West,263,11.0,11.0,53,0.00,,,0.00,Wunderground v.1.15,2013-03-27 23:50:00,
2013-03-27 19:55:00,42.5,27.0,30.07,West,273,11.0,11.0,54,0.00,,,0.00,Wunderground v.1.15,2013-03-27 23:55:00,
2013-03-27 20:00:00,42.2,26.7,30.07,West,271,9.0,9.0,54,0.00,,,0.00,Wunderground v.1.15,2013-03-28 00:00:00,
2013-03-27 20:10:00,42.2,26.7,30.07,West,277,10.0,11.0,54,0.00,,,0.00,Wunderground v.1.15,2013-03-28 00:10:00,
2013-03-27 20:15:00,42.2,26.7,30.08,West,277,10.0,11.0,54,0.00,,,0.00,Wunderground v.1.15,2013-03-28 00:15:00,
2013-03-27 20:20:00,42.1,26.6,30.08,West,265,10.0,10.0,54,0.00,,,0.00,Wunderground v.1.15,2013-03-28 00:20:00,
2013-03-27 20:25:00,42.2,26.7,30.08,West,273,11.0,11.0,54,0.00,,,0.00,Wunderground v.1.15,2013-03-28 00:25:00,
2013-03-27 20:30:00,41.9,26.9,30.08,WNW,298,11.0,11.0,55,0.00,,,0.00,Wunderground v.1.15,2013-03-28 00:30:00,
2013-03-27 20:40:00,41.7,26.7,30.08,West,259,10.0,10.0,55,0.00,,,0.00,Wunderground v.1.15,2013-03-28 00:40:00,
2013-03-27 20:45:00,41.7,26.7,30.08,WNW,294,10.0,10.0,55,0.00,,,0.00,Wunderground v.1.15,2013-03-28 00:45:00,
2013-03-27 20:50:00,41.5,27.0,30.08,West,273,8.0,8.0,56,0.00,,,0.00,Wunderground v.1.15,2013-03-28 00:50:00,
2013-03-27 20:55:00,41.3,26.8,30.08,West,275,7.0,8.0,56,0.00,,,0.00,Wunderground v.1.15,2013-03-28 00:55:00,
2013-03-27 21:00:00,41.1,26.6,30.09,West,274,6.0,6.0,56,0.00,,,0.00,Wunderground v.1.15,2013-03-28 01:00:00,
2013-03-27 21:10:00,41.1,26.6,30.09,West,271,5.0,10.0,56,0.00,,,0.00,Wunderground v.1.15,2013-03-28 01:10:00,
2013-03-27 21:15:00,41.2,26.7,30.09,NW,319,6.0,10.0,56,0.00,,,0.00,Wunderground v.1.15,2013-03-28 01:15:00,
2013-03-27 21:20:00,41.1,26.6,30.10,West,274,4.0,4.0,56,0.00,,,0.00,Wunderground v.1.15,2013-03-28 01:20:00,
2013-03-27 21:25:00,41.0,26.5,30.10,West,274,3.0,4.0,56,0.00,,,0.00,Wunderground v.1.15,2013-03-28 01:25:00,
2013-03-27 21:30:00,41.0,26.5,30.10,NW,309,3.0,4.0,56,0.00,,,0.00,Wunderground v.1.15,2013-03-28 01:30:00,
2013-03-27 21:35:00,40.9,26.4,30.10,WNW,300,2.0,4.0,56,0.00,,,0.00,Wunderground v.1.15,2013-03-28 01:35:00,
2013-03-27 21:40:00,40.9,26.4,30.10,NW,309,2.0,2.0,56,0.00,,,0.00,Wunderground v.1.15,2013-03-28 01:40:00,
2013-03-27 21:45:00,40.9,26.4,30.10,West,265,1.0,2.0,56,0.00,,,0.00,Wunderground v.1.15,2013-03-28 01:45:00,
2013-03-27 21:50:00,41.0,26.5,30.10,SW,234,2.0,2.0,56,0.00,,,0.00,Wunderground v.1.15,2013-03-28 01:50:00,
2013-03-27 21:55:00,41.2,26.2,30.10,SW,234,2.0,2.0,55,0.00,,,0.00,Wunderground v.1.15,2013-03-28 01:55:00,
2013-03-27 22:00:00,41.1,26.6,30.10,West,275,1.0,1.0,56,0.00,,,0.00,Wunderground v.1.15,2013-03-28 02:00:00,
2013-03-27 22:10:00,40.8,26.7,30.11,NW,315,2.0,5.0,57,0.00,,,0.00,Wunderground v.1.15,2013-03-28 02:10:00,
2013-03-27 22:15:00,41.0,26.5,30.11,West,277,3.0,5.0,56,0.00,,,0.00,Wunderground v.1.15,2013-03-28 02:15:00,
2013-03-27 22:20:00,41.0,26.5,30.11,West,275,3.0,3.0,56,0.00,,,0.00,Wunderground v.1.15,2013-03-28 02:20:00,
2013-03-27 22:25:00,40.9,26.4,30.11,WNW,293,4.0,4.0,56,0.00,,,0.00,Wunderground v.1.15,2013-03-28 02:25:00,
2013-03-27 22:30:00,40.8,26.7,30.11,NW,304,4.0,9.0,57,0.00,,,0.00,Wunderground v.1.15,2013-03-28 02:30:00,
2013-03-27 22:35:00,40.8,26.7,30.11,East,87,5.0,9.0,57,0.00,,,0.00,Wunderground v.1.15,2013-03-28 02:35:00,
2013-03-27 22:40:00,40.7,26.6,30.11,NW,311,5.0,5.0,57,0.00,,,0.00,Wunderground v.1.15,2013-03-28 02:40:00,
2013-03-27 22:50:00,39.9,26.7,30.11,West,267,2.0,5.0,59,0.00,,,0.00,Wunderground v.1.15,2013-03-28 02:50:00,
2013-03-27 22:55:00,39.8,27.0,30.11,West,274,4.0,5.0,60,0.00,,,0.00,Wunderground v.1.15,2013-03-28 02:55:00,
2013-03-27 23:00:00,39.7,27.3,30.11,West,277,4.0,4.0,61,0.00,,,0.00,Wunderground v.1.15,2013-03-28 03:00:00,
2013-03-27 23:10:00,39.3,27.7,30.11,WNW,296,3.0,3.0,63,0.00,,,0.00,Wunderground v.1.15,2013-03-28 03:10:00,
2013-03-27 23:20:00,39.0,28.2,30.11,NW,326,4.0,5.0,65,0.00,,,0.00,Wunderground v.1.15,2013-03-28 03:20:00,
2013-03-27 23:25:00,38.9,28.5,30.11,West,277,4.0,5.0,66,0.00,,,0.00,Wunderground v.1.15,2013-03-28 03:25:00,
2013-03-27 23:30:00,38.9,28.9,30.11,West,269,4.0,6.0,67,0.00,,,0.00,Wunderground v.1.15,2013-03-28 03:30:00,
2013-03-27 23:35:00,39.1,28.7,30.11,West,270,4.0,6.0,66,0.00,,,0.00,Wunderground v.1.15,2013-03-28 03:35:00,
2013-03-27 23:40:00,38.9,28.9,30.11,West,275,5.0,5.0,67,0.00,,,0.00,Wunderground v.1.15,2013-03-28 03:40:00,
2013-03-27 23:45:00,38.7,28.7,30.11,West,271,3.0,5.0,67,0.00,,,0.00,Wunderground v.1.15,2013-03-28 03:45:00,
2013-03-27 23:55:00,38.7,28.7,30.10,West,261,5.0,5.0,67,0.00,,,0.00,Wunderground v.1.15,2013-03-28 03:55:00,